秋田空港の過去48時間の天気

秋田空港 (Akita)

現在時刻: 2/25 18:01 JST (2/25 09:01 UTC) 以下の時間は現地時間です。

過去48時間のMETAR気象情報
時間 風向 風速(m/s) 視程 気温(℃) 湿度(%) 気圧(hPa) 天気現象
25 17:00 北西 3 10km以上 4 60 1020
25 16:00 西 5 10km以上 5 56 1020
25 15:00 西 5 10km以上 6 52 1020
25 14:00 西北西 5 10km以上 7 45 1020
25 13:00 西 7 10km以上 7 49 1019
25 12:00 西 6 10km以上 7 42 1020
25 11:00 北西 5 10km以上 6 45 1021
25 10:00 西北西 6 10km以上 6 49 1021
25 09:00 北北西 3 10km以上 6 52 1022
25 08:00 東南東 1 10km以上 3 70 1022
25 07:00 西北西 1 10km以上 1 75 1021
25 06:40 西 1 10km以上 3 65 1021
24 21:00 西北西 5 10km以上 6 76 1019
24 20:00 西北西 4 10km以上 6 76 1018
24 19:00 西北西 6 10km以上 6 81 1019
24 18:19 西 7 10km以上 7 76 1018 弱いしゅう雨
24 18:00 西 6 10km以上 7 76 1018
24 17:00 西北西 8 10km以上 7 87 1017 弱いしゅう雨
24 16:11 西北西 7 10km以上 6 93 1017 弱いしゅう雨
24 16:00 西北西 9 8000m 6 87 1017 弱い雷雨
24 15:34 西北西 12 8000m 6 87 1016 弱いしゅう雨
24 15:26 西南西 6 8000m 7 87 1016 弱いしゅう雨 弱いしゅうあられ
24 15:00 西南西 7 8000m 7 81 1016 弱いしゅう雨
24 14:00 西南西 10 10km以上 8 66 1016 弱いしゅう雨
24 13:00 西南西 7 10km以上 8 53 1017
24 12:00 西南西 8 10km以上 9 50 1018
24 11:00 西南西 7 10km以上 7 57 1019
24 10:00 西 7 10km以上 7 57 1019
24 09:00 西 7 10km以上 6 52 1020
24 08:00 西北西 6 10km以上 5 56 1020
24 07:00 北西 5 10km以上 4 65 1020
24 06:40 西北西 6 10km以上 4 60 1020
23 21:00 西北西 10 10km以上 3 60 1018 弱いしゅう雪
23 20:00 西北西 9 10km以上 3 60 1018 弱いしゅう雪
23 19:00 西北西 9 10km以上 3 60 1017 弱いしゅう雪
RJSK 250800Z 31006KT 280V340 9999 FEW040 SCT160 BKN/// 04/M03 Q1020
RJSK 250700Z 28009KT 9999 FEW040 SCT150 BKN/// 05/M03 Q1020
RJSK 250600Z 28010KT 9999 FEW040 SCT170 BKN/// 06/M03 Q1020
RJSK 250500Z 29009KT 9999 FEW040 BKN/// 07/M04 Q1020
RJSK 250400Z 28013KT 9999 FEW040 BKN/// 07/M03 Q1019
RJSK 250300Z 28011KT 9999 FEW040 BKN/// 07/M05 Q1020
RJSK 250200Z 31010KT 260V360 9999 FEW040 BKN/// 06/M05 Q1021
RJSK 250100Z 29012KT 9999 FEW040 BKN/// 06/M04 Q1021
RJSK 250000Z 34006KT 300V020 9999 FEW040 BKN/// 06/M03 Q1022
RJSK 242300Z 11002KT 9999 FEW040 BKN/// 03/M02 Q1022
RJSK 242200Z 30002KT 9999 FEW040 01/M03 Q1021
RJSK 242140Z 28002KT 9999 FEW035 SCT/// 03/M03 Q1021 RMK 1CU035 A3017
RJSK 241200Z 29010KT 9999 FEW020 SCT035 BKN/// 06/02 Q1019
RJSK 241100Z 30008KT 9999 FEW020 SCT030 BKN/// 06/02 Q1018
RJSK 241000Z 29011KT 9999 FEW020 BKN030 06/03 Q1019
RJSK 240919Z 27014KT 9999 -SHRA FEW010 SCT015 BKN030 07/03 Q1018 RMK 1CU010 3CU015 5CU030 A3008
RJSK 240900Z 28012KT 9999 FEW015 BKN025 07/03 Q1018
RJSK 240800Z 29015KT 9999 -SHRA FEW008 SCT015 BKN025 07/05 Q1017
RJSK 240711Z 30014KT 9999 -SHRA FEW005 SCT020 BKN030 FEW030CB 06/05 Q1017 RMK 1ST005 3CU020 5CU030 1CB030 A3004 CB 20KM SE MOV E
RJSK 240700Z 30017KT 8000 -TSRA FEW007 SCT020 BKN035 FEW035CB 06/04 Q1017
RJSK 240634Z 29023KT 8000 -SHRA FEW005 SCT010 BKN020 06/04 Q1016 RMK 1ST005 3CU010 5CU020 A3003
RJSK 240626Z 25011KT 210V280 8000 -SHRAGS FEW010 SCT015 BKN020 07/05 Q1016 RMK 1CU010 3CU015 5CU020 A3000 SMALL HAIL
RJSK 240600Z 25013G25KT 210V280 8000 -SHRA FEW015 SCT020 BKN025 07/04 Q1016
RJSK 240500Z 25020G33KT 9999 -SHRA FEW020 SCT030 BKN040 08/02 Q1016
RJSK 240400Z 25014KT 210V270 9999 FEW030 BKN050 BKN070 08/M01 Q1017
RJSK 240300Z 24015G26KT 160V280 9999 FEW030 SCT040 BKN120 09/M01 Q1018
RJSK 240200Z 25013KT 200V280 9999 FEW030 SCT040 BKN120 07/M01 Q1019
RJSK 240100Z 26013KT 230V290 9999 FEW030 SCT040 07/M01 Q1019
RJSK 240000Z 28014KT 9999 FEW030 SCT100 06/M03 Q1020
RJSK 232300Z 29011KT 9999 FEW030 BKN110 05/M03 Q1020
RJSK 232200Z 31009KT 9999 FEW020 SCT070 04/M02 Q1020
RJSK 232140Z 30011KT 9999 FEW020 SCT040 04/M03 Q1020 RMK 1CU020 4CU040 A3013
RJSK 231200Z 29019KT 9999 -SHSN FEW035 BKN050 03/M04 Q1018
RJSK 231100Z 29017KT 9999 -SHSN FEW020 SCT035 BKN045 03/M04 Q1018
RJSK 231000Z 30017KT 9999 -SHSN FEW015 SCT025 BKN035 03/M04 Q1017